Station: MURRAY BRIDGE AP

  Atmospheric Gas Attenuation - ITU Rec 676-11   --------------- db/100km ---------------
Date Time Temp RH % AH g/m3 Dew Point Wind Direction Speed kph Gust kph Barometer mB Rainfall Since 9am 24GHz 47GHz 76GHz 122GHz 134GHz 241GHz
03 09:30 18.5 53 8.38 8.7 13 20 1021.9 0 18.9 24.5 37.1 97.1 90.6 311.7
03 09:20 18.5 52 8.23 8.5 11 15 1022 0 18.6 24.3 36.5 95.6 88.8 305.2
03 09:10 18 56 8.6 9.1 11 13 1022 0 19.4 25.0 38.1 99.9 93.9 323.3
03 09:00 17.5 54 8.05 8.1 11 19 1022 0 18.2 24.3 36.3 95.0 87.7 301.2
03 08:50 18 56 8.6 9.1 7 9 1022.1 0 19.4 25.0 38.1 99.9 93.9 323.3
03 08:40 17.7 56 8.45 8.8 7 13 1022.1 0 19.1 24.9 37.7 98.8 92.4 317.9
03 08:30 17.7 58 8.75 9.3 9 15 1022.2 0 19.7 25.3 38.9 101.9 96.2 331.2
03 08:20 17.2 58 8.49 8.9 11 13 1022 0 19.2 25.1 38.1 99.8 93.5 321.7
03 08:10 16.9 61 8.77 9.3 7 9 1021.9 0 19.8 25.6 39.3 103.1 97.4 335.4
03 08:00 16.7 65 9.24 10.1 7 11 1021.8 0 20.8 26.4 41.3 108.3 103.8 357.5
03 07:50 15.9 69 9.34 10.2 6 6 1021.8 0 21.1 26.8 42.1 110.4 106.1 365.8
03 07:40 15.6 70 9.31 10.2 0 0 1021.8 0 21.0 26.8 42.1 110.5 106.2 365.8
03 07:30 15 76 9.75 10.8 2 7 1021.8 0 22.0 27.7 44.2 116.2 112.9 389.4
03 07:20 13.7 83 9.83 10.9 0 0 1021.6 0 22.2 28.3 45.3 119.0 115.9 399.8
03 07:10 13 88 9.98 11.1 6 6 1021.5 0 22.6 28.8 46.4 121.8 119.1 410.7
03 07:00 11.9 94 9.96 11 0 0 1021.4 0 22.6 29.1 46.9 123.3 120.5 415.6
03 06:50 11 96 9.61 10.4 0 0 1021.4 0 21.9 28.8 45.9 120.7 116.9 402.8
03 06:40 9.7 96 8.85 9.1 0 0 1021.4 0 20.3 27.9 43.4 113.8 108.0 371.5
03 06:30 8.7 95 8.22 7.9 0 0 1021.3 0 19.0 27.1 41.2 108.0 100.5 344.9
03 06:20 8 94 7.77 7.1 0 0 1021.2 0 18.1 26.5 39.6 103.9 95.1 325.9
03 06:10 7.9 92 7.56 6.7 0 0 1021.2 0 17.6 26.2 38.8 101.6 92.3 316.1
03 06:00 8.1 91 7.58 6.7 0 0 1021.1 0 17.7 26.2 38.8 101.6 92.3 316.2
03 05:50 9.8 92 8.54 8.6 0 0 1021 0 19.6 27.3 42.0 110.1 103.5 355.6
03 05:40 10.3 93 8.91 9.2 6 6 1020.8 0 20.4 27.8 43.3 113.6 108.0 371.4
03 05:30 10.4 92 8.87 9.2 6 7 1020.7 0 20.3 27.7 43.0 113.0 107.2 368.9
03 05:20 10.8 92 9.1 9.6 6 7 1020.7 0 20.8 27.9 43.8 115.0 109.9 378.3
03 05:00 11.5 92 9.5 10.2 9 11 1020.6 0 21.6 28.4 45.1 118.5 114.5 394.5
03 04:50 11.7 91 9.52 10.3 9 9 1020.5 0 21.7 28.4 45.1 118.4 114.5 394.5
03 04:40 11.7 92 9.62 10.4 7 7 1020.5 0 21.9 28.5 45.5 119.6 115.9 399.4
03 04:30 11.2 94 9.53 10.3 6 7 1020.5 0 21.7 28.5 45.4 119.3 115.4 397.5
03 04:20 10.7 96 9.43 10.1 7 7 1020.4 0 21.5 28.5 45.3 118.9 114.7 395.1
03 04:10 9.8 97 9 9.3 0 0 1020.6 0 20.6 28.1 43.9 115.3 109.9 378.2
03 04:00 9.1 97 8.61 8.6 0 0 1020.7 0 19.8 27.6 42.6 111.9 105.4 362.2
03 03:50 7.7 94 7.63 6.8 0 0 1020.7 0 17.8 26.4 39.2 102.6 93.4 320.2
03 03:40 7.6 91 7.33 6.2 4 6 1020.7 0 17.1 25.9 38.0 99.4 89.4 306.0
03 03:30 8.1 92 7.66 6.9 6 7 1020.8 0 17.8 26.3 39.1 102.5 93.4 320.0
03 03:20 9.5 96 8.74 8.9 6 7 1020.8 0 20.1 27.7 43.0 112.8 106.7 366.8
03 03:10 8.2 92 7.71 7 6 6 1020.8 0 17.9 26.4 39.3 102.9 93.9 322.0
03 03:00 8.3 90 7.59 6.8 7 9 1020.8 0 17.7 26.1 38.7 101.4 92.2 315.8
03 02:50 9.8 92 8.54 8.6 9 9 1020.7 0 19.6 27.3 42.0 110.1 103.4 355.5
03 02:40 9.9 93 8.69 8.8 7 7 1020.9 0 20.0 27.5 42.6 111.7 105.4 362.5
03 02:30 9.9 94 8.78 9 6 9 1020.9 0 20.2 27.7 42.9 112.7 106.7 366.9
03 02:20 8.6 91 7.82 7.2 0 0 1020.9 0 18.2 26.4 39.5 103.6 95.0 325.7
03 02:10 8.8 89 7.75 7.1 0 0 1021 0 18.0 26.3 39.2 102.6 93.8 321.5
03 02:00 9.9 91 8.5 8.5 0 0 1020.8 0 19.6 27.2 41.7 109.5 102.8 353.1
03 01:50 10.3 89 8.53 8.6 0 0 1020.8 0 19.6 27.1 41.7 109.3 102.6 352.8
03 01:40 10.5 88 8.54 8.6 0 0 1020.8 0 19.6 27.1 41.6 109.1 102.5 352.3
03 01:30 10.6 87 8.49 8.5 0 0 1020.8 0 19.5 27.0 41.3 108.4 101.7 349.5
03 01:20 11.4 87 8.93 9.3 0 0 1020.8 0 20.4 27.5 42.8 112.2 106.7 367.1
03 01:10 11.6 86 8.94 9.3 0 0 1020.8 0 20.4 27.4 42.7 112.0 106.6 366.7
03 01:00 11.8 86 9.05 9.5 2 6 1020.9 0 20.6 27.5 43.0 113.0 107.8 371.1
03 00:50 11.6 87 9.04 9.5 6 6 1021 0 20.6 27.6 43.1 113.2 108.0 371.6
03 00:40 11.4 86 8.83 9.1 9 9 1021 0 20.2 27.3 42.3 111.1 105.3 362.3
03 00:30 11.6 86 8.94 9.3 9 13 1020.9 0 20.4 27.4 42.7 112.0 106.6 366.7
03 00:20 12 85 9.06 9.6 11 13 1020.8 0 20.7 27.5 43.0 112.8 107.7 370.6
03 00:10 12 84 8.95 9.4 11 11 1020.9 0 20.4 27.3 42.5 111.6 106.2 365.3
03 00:00 12.3 82 8.9 9.3 11 15 1021.1 0 20.3 27.1 42.2 110.6 105.1 361.5
02 23:50 12.4 82 8.96 9.4 11 11 1021.2 0 20.4 27.2 42.4 111.2 105.8 364.0
02 23:40 12.3 82 8.9 9.3 13 13 1021.2 0 20.3 27.1 42.2 110.6 105.1 361.6
02 23:30 12.3 81 8.8 9.1 13 19 1021.1 0 20.1 27.0 41.7 109.5 103.7 356.8
02 23:20 12.8 80 8.96 9.4 15 17 1020.9 0 20.4 27.1 42.1 110.6 105.2 362.0
02 23:10 12.4 81 8.85 9.2 15 17 1020.8 0 20.2 27.0 41.9 109.9 104.2 358.6
02 23:00 12.1 83 8.9 9.3 13 15 1020.8 0 20.3 27.2 42.3 110.9 105.3 362.4
02 22:50 12.1 80 8.58 8.8 13 15 1020.8 0 19.6 26.7 40.9 107.3 100.9 347.1
02 22:40 12.9 79 8.9 9.4 13 15 1020.8 0 20.3 26.9 41.8 109.7 104.2 358.7
02 22:30 12.8 79 8.85 9.3 15 19 1020.7 0 20.2 26.9 41.7 109.3 103.7 356.7
02 22:20 12.9 78 8.79 9.2 15 17 1020.7 0 20.0 26.8 41.4 108.5 102.7 353.4
02 22:10 13.2 76 8.73 9.1 15 17 1020.6 0 19.9 26.6 41.0 107.4 101.5 349.2
02 22:00 13.5 75 8.77 9.2 19 24 1020.5 0 20.0 26.5 41.0 107.5 101.7 349.8
02 21:50 13.8 73 8.7 9 20 26 1020.2 0 19.8 26.3 40.5 106.3 100.3 345.1
02 21:40 13.8 73 8.7 9 24 30 1020.1 0 19.8 26.3 40.5 106.2 100.3 345.0
02 21:30 14 72 8.68 9 26 35 1020 0 19.7 26.2 40.3 105.8 99.8 343.2
02 21:20 14.2 72 8.79 9.2 28 32 1019.9 0 20.0 26.3 40.7 106.7 101.0 347.4
02 21:10 14 72 8.68 9 22 26 1019.8 0 19.7 26.2 40.3 105.7 99.7 343.1
02 21:00 14.3 71 8.72 9.1 20 30 1019.7 0 19.8 26.2 40.3 105.7 99.9 343.7
02 20:50 14.3 72 8.85 9.3 22 26 1019.6 0 20.1 26.4 40.8 107.1 101.6 349.7
02 20:40 14.3 70 8.6 8.9 19 22 1019.6 0 19.6 26.0 39.8 104.5 98.3 338.1
02 20:30 14.6 69 8.63 9 28 41 1019.5 0 19.6 25.9 39.8 104.4 98.3 338.2
02 20:20 14.8 70 8.87 9.4 26 32 1019.4 0 20.1 26.3 40.7 106.7 101.2 348.3
02 20:10 15 70 8.98 9.6 33 39 1019.2 0 20.3 26.4 41.0 107.5 102.4 352.5
02 20:00 15.1 68 8.77 9.2 28 39 1019.2 0 19.9 26.0 40.1 105.2 99.5 342.3
02 19:50 15.4 67 8.8 9.3 24 28 1019.1 0 19.9 26.0 40.1 105.1 99.5 342.4
02 19:40 15.6 66 8.78 9.3 24 30 1019 0 19.9 25.9 39.9 104.6 98.9 340.6
02 19:30 16 65 8.86 9.4 32 43 1018.7 0 20.0 25.9 40.0 104.9 99.5 342.4
02 19:20 16.3 62 8.6 9 33 35 1018.7 0 19.5 25.4 38.8 101.8 95.7 329.4
02 19:10 16.6 63 8.9 9.5 35 41 1018.4 0 20.1 25.8 39.8 104.5 99.2 341.6
02 19:00 17 62 8.97 9.7 32 44 1018.2 0 20.2 25.7 39.9 104.6 99.6 342.9
02 18:50 17 60 8.68 9.2 41 44 1018.1 0 19.6 25.3 38.8 101.6 95.8 329.9
02 18:40 17.4 61 9.04 9.8 30 37 1017.9 0 20.3 25.7 39.9 104.8 99.9 344.2
02 18:30 17.5 62 9.24 10.1 33 43 1017.7 0 20.8 26.0 40.7 106.7 102.3 352.7
02 18:20 18.2 57 8.86 9.5 32 37 1017.7 0 19.9 25.2 38.8 101.9 96.6 332.8
02 18:10 18.1 57 8.81 9.5 37 44 1017.6 0 19.8 25.2 38.7 101.5 96.1 331.0
02 18:00 18.2 58 9.01 9.8 37 54 1017.3 0 20.2 25.4 39.4 103.4 98.5 339.3
02 17:50 18.8 57 9.18 10.1 35 50 1017.3 0 20.6 25.5 39.8 104.4 99.9 344.2
02 17:40 19 57 9.29 10.3 44 50 1017 0 20.8 25.6 40.1 105.2 101.0 348.2
02 17:30 19.4 54 9.01 9.9 37 50 1016.8 0 20.2 25.1 38.8 101.8 97.0 334.1
02 17:20 19.4 55 9.18 10.1 44 56 1016.8 0 20.5 25.3 39.4 103.5 99.1 341.5
02 17:10 19.7 55 9.34 10.4 43 48 1016.7 0 20.9 25.5 39.9 104.8 100.7 347.2
02 17:00 19.8 54 9.22 10.2 37 54 1016.5 0 20.6 25.3 39.4 103.4 99.0 341.5
02 16:50 20 54 9.33 10.4 46 54 1016.5 0 20.8 25.4 39.7 104.2 100.2 345.4

Last Refresh: 03-Dec-2021 09:44:04

Bureau of Meteorology